Time;durP1;ratioP1;P1;durP2;ratioP2;P2;SDS_P1;SDS_P2;PMS_P1;PMS_P2;Temp;Humidity;BMP_temperature;BMP_pressure;BME280_temperature;BME280_humidity;BME280_pressure;Samples;Min_cycle;Max_cycle;Signal;HPM_P1;HPM_P2
2023/10/18 00:00:25;;;;;;;9.43;8.60;;;;;;;-148.82;100.00;60434.72;5109246;27;20205;-71
2023/10/18 00:02:53;;;;;;;8.70;7.80;;;;;;;-148.82;100.00;60434.72;5108294;27;20216;-70
2023/10/18 00:05:22;;;;;;;9.33;8.50;;;;;;;-148.82;100.00;60434.72;5111124;27;20883;-72
2023/10/18 00:07:51;;;;;;;9.93;9.03;;;;;;;-148.82;100.00;60434.72;5108788;27;20735;-72
2023/10/18 00:10:20;;;;;;;9.20;8.40;;;;;;;;;;5110314;27;20208;-71
2023/10/18 00:12:48;;;;;;;9.93;9.13;;;;;;;-148.82;100.00;60434.72;5114150;27;20295;-71
2023/10/18 00:15:18;;;;;;;9.63;8.63;;;;;;;-148.82;100.00;60434.72;5107878;27;20228;-70
2023/10/18 00:17:46;;;;;;;9.33;8.53;;;;;;;-148.82;100.00;60434.72;5113709;27;20232;-72
2023/10/18 00:20:20;;;;;;;9.23;8.53;;;;;;;-148.82;100.00;60434.72;5110345;27;20221;-72
2023/10/18 00:22:48;;;;;;;9.50;8.60;;;;;;;;;;5115511;27;20216;-72
2023/10/18 00:25:16;;;;;;;9.33;8.53;;;;;;;-148.82;100.00;60434.72;5104614;27;20230;-72
2023/10/18 00:27:45;;;;;;;9.53;8.67;;;;;;;-148.82;100.00;60434.72;5111494;27;20205;-71
2023/10/18 00:30:13;;;;;;;10.07;9.17;;;;;;;;;;5108841;27;20205;-72
2023/10/18 00:32:43;;;;;;;10.73;9.43;;;;;;;-148.82;100.00;60434.72;5110634;27;20269;-71
2023/10/18 00:35:18;;;;;;;10.00;9.10;;;;;;;-148.82;100.00;60434.72;5107950;27;20245;-72
2023/10/18 00:37:47;;;;;;;9.27;8.47;;;;;;;;;;5112525;27;20406;-72
2023/10/18 00:40:32;;;;;;;10.40;9.53;;;;;;;-148.82;100.00;60434.72;5108919;27;20213;-72
2023/10/18 00:43:07;;;;;;;10.63;9.73;;;;;;;-148.82;100.00;60434.72;5114987;27;20213;-71
2023/10/18 00:45:39;;;;;;;11.00;9.20;;;;;;;-148.82;100.00;60434.72;5116868;27;20327;-72
2023/10/18 00:48:11;;;;;;;10.10;9.17;;;;;;;-148.82;100.00;60434.72;5111631;27;20197;-71
2023/10/18 00:50:43;;;;;;;9.93;9.10;;;;;;;-148.82;100.00;60434.72;5120408;27;20238;-71
2023/10/18 00:53:11;;;;;;;10.33;9.30;;;;;;;-148.82;100.00;60434.72;5113107;27;20740;-72
2023/10/18 00:55:39;;;;;;;10.47;9.57;;;;;;;-148.82;100.00;60434.72;5116234;27;20324;-72
2023/10/18 00:58:08;;;;;;;9.87;9.07;;;;;;;-148.82;100.00;60434.72;5112071;27;20245;-72
2023/10/18 01:00:39;;;;;;;10.47;9.57;;;;;;;;;;5112948;27;20202;-71
2023/10/18 01:03:15;;;;;;;9.77;8.97;;;;;;;-148.82;100.00;60434.72;5114089;27;20213;-71
2023/10/18 01:06:00;;;;;;;9.93;9.10;;;;;;;-148.82;100.00;60434.72;5116632;27;20874;-72
2023/10/18 01:08:30;;;;;;;9.93;8.93;;;;;;;-148.82;100.00;60434.72;5114497;27;20201;-72
2023/10/18 01:11:04;;;;;;;9.53;8.73;;;;;;;-148.82;100.00;60434.72;5115364;27;20265;-72
2023/10/18 01:13:34;;;;;;;10.47;9.47;;;;;;;-148.82;100.00;60434.72;5111207;27;20225;-71
2023/10/18 01:16:06;;;;;;;10.43;9.63;;;;;;;-148.82;100.00;60434.72;5111212;27;20823;-73
2023/10/18 01:18:36;;;;;;;10.33;9.27;;;;;;;-148.82;100.00;60434.72;5116046;27;20201;-72
2023/10/18 01:21:13;;;;;;;10.87;9.80;;;;;;;-148.82;100.00;60434.72;5113862;27;20224;-71
2023/10/18 01:23:42;;;;;;;10.13;9.13;;;;;;;;;;5109943;27;20340;-72
2023/10/18 01:26:13;;;;;;;10.90;9.93;;;;;;;-148.82;100.00;60434.72;5111523;27;20251;-70
2023/10/18 01:28:41;;;;;;;10.43;9.60;;;;;;;;;;5114016;27;20201;-70
2023/10/18 01:31:09;;;;;;;10.93;9.83;;;;;;;;;;5113368;27;20208;-70
2023/10/18 01:33:43;;;;;;;10.73;9.73;;;;;;;-148.82;100.00;60434.72;5117019;27;20196;-71
2023/10/18 01:36:14;;;;;;;11.33;10.30;;;;;;;;;;5112754;27;20212;-71
2023/10/18 01:38:43;;;;;;;9.93;9.03;;;;;;;;;;5113705;27;20201;-72
2023/10/18 01:41:16;;;;;;;10.87;9.77;;;;;;;-148.82;100.00;60434.72;5107547;27;20202;-71
2023/10/18 01:43:44;;;;;;;10.50;9.50;;;;;;;;;;5111066;27;20725;-71
2023/10/18 01:46:13;;;;;;;11.13;10.03;;;;;;;-148.82;100.00;60434.72;5112972;27;20226;-71
2023/10/18 01:48:41;;;;;;;11.03;10.03;;;;;;;;;;5112751;27;20209;-70
2023/10/18 01:51:12;;;;;;;12.03;9.03;;;;;;;-148.82;100.00;60434.72;5107532;27;20711;-71
2023/10/18 01:53:42;;;;;;;11.60;10.60;;;;;;;-148.82;100.00;60434.72;5111615;27;20341;-71
2023/10/18 01:56:13;;;;;;;11.83;10.73;;;;;;;;;;5109897;27;20225;-72
2023/10/18 01:58:41;;;;;;;12.03;10.87;;;;;;;-148.82;100.00;60434.72;5113742;27;20741;-71
2023/10/18 02:01:16;;;;;;;10.97;9.97;;;;;;;;;;5106989;27;20197;-72
2023/10/18 02:03:45;;;;;;;11.40;10.03;;;;;;;-148.82;100.00;60434.72;5112955;27;20810;-70
2023/10/18 02:06:14;;;;;;;10.07;9.17;;;;;;;-148.82;100.00;60434.72;5108985;27;20301;-72
2023/10/18 02:08:42;;;;;;;10.67;9.77;;;;;;;-148.82;100.00;60434.72;5113124;27;20201;-72
2023/10/18 02:11:11;;;;;;;11.00;9.90;;;;;;;;;;5109261;27;20196;-72
2023/10/18 02:13:39;;;;;;;11.17;10.03;;;;;;;-148.82;100.00;60434.72;5109530;27;20218;-72
2023/10/18 02:16:14;;;;;;;12.47;11.17;;;;;;;-148.82;100.00;60434.72;5113974;27;20281;-71
2023/10/18 02:18:46;;;;;;;10.13;9.17;;;;;;;-148.82;100.00;60434.72;5115290;27;20270;-72
2023/10/18 02:21:15;;;;;;;10.43;9.53;;;;;;;-148.82;100.00;60434.72;5112507;27;20284;-72
2023/10/18 02:23:46;;;;;;;11.23;10.13;;;;;;;-148.82;100.00;60434.72;5116849;27;20258;-72
2023/10/18 02:26:30;;;;;;;11.33;10.23;;;;;;;-148.82;100.00;60434.72;5111495;27;20412;-74
2023/10/18 02:28:59;;;;;;;10.03;9.13;;;;;;;-148.82;100.00;60434.72;5117732;27;20203;-73
2023/10/18 02:31:28;;;;;;;10.77;9.77;;;;;;;-148.82;100.00;60434.72;5113201;27;20202;-74
2023/10/18 02:33:56;;;;;;;8.57;7.83;;;;;;;-148.82;100.00;60434.72;5114514;27;20220;-73
2023/10/18 02:36:32;;;;;;;9.13;8.33;;;;;;;-148.82;100.00;60434.72;5112221;27;20939;-75
2023/10/18 02:39:00;;;;;;;10.10;9.10;;;;;;;-148.82;100.00;60434.72;5114837;27;20211;-72
2023/10/18 02:41:29;;;;;;;11.93;10.87;;;;;;;-148.82;100.00;60434.72;5109375;27;20201;-72
2023/10/18 02:43:58;;;;;;;12.10;10.93;;;;;;;-148.82;100.00;60434.72;5114823;27;20213;-73
2023/10/18 02:46:26;;;;;;;10.50;9.50;;;;;;;-148.82;100.00;60434.72;5111463;27;20227;-72
2023/10/18 02:48:55;;;;;;;10.50;9.63;;;;;;;-148.82;100.00;60434.72;5116203;27;20204;-72
2023/10/18 02:51:24;;;;;;;10.27;9.37;;;;;;;-148.82;100.00;60434.72;5113799;27;20259;-72
2023/10/18 02:53:53;;;;;;;11.70;10.30;;;;;;;-148.82;100.00;60434.72;5113876;27;20245;-73
2023/10/18 02:56:26;;;;;;;10.23;9.23;;;;;;;-148.82;100.00;60434.72;5112131;27;20200;-73
2023/10/18 02:58:57;;;;;;;11.10;10.00;;;;;;;-148.82;100.00;60434.72;5113048;27;20213;-72
2023/10/18 03:01:28;;;;;;;10.93;9.83;;;;;;;-148.82;100.00;60434.72;5109609;27;20216;-71
2023/10/18 03:03:57;;;;;;;9.87;9.03;;;;;;;-148.82;100.00;60434.72;5115051;27;20197;-74
2023/10/18 03:06:27;;;;;;;11.37;10.27;;;;;;;-148.82;100.00;60434.72;5114381;27;20724;-72
2023/10/18 03:08:58;;;;;;;11.30;9.77;;;;;;;-148.82;100.00;60434.72;5115969;27;20236;-72
2023/10/18 03:11:26;;;;;;;11.30;10.20;;;;;;;;;;5108612;27;20683;-71
2023/10/18 03:13:57;;;;;;;10.10;9.20;;;;;;;-148.82;100.00;60434.72;5109959;27;20193;-71
2023/10/18 03:16:38;;;;;;;10.90;9.83;;;;;;;-148.82;100.00;60434.72;5111022;27;20201;-72
2023/10/18 03:19:12;;;;;;;11.97;10.87;;;;;;;;;;5113100;27;20757;-74
2023/10/18 03:21:41;;;;;;;11.13;10.23;;;;;;;-148.82;100.00;60434.72;5113363;27;20248;-73
2023/10/18 03:24:12;;;;;;;10.60;9.80;;;;;;;41.96;100.00;60434.72;5114142;27;20725;-73
2023/10/18 03:26:40;;;;;;;11.07;10.07;;;;;;;63.19;100.00;60434.72;5111317;27;20229;-73
2023/10/18 03:29:12;;;;;;;10.43;9.43;;;;;;;-148.82;100.00;60434.72;5110714;27;20761;-72
2023/10/18 03:31:41;;;;;;;10.23;9.33;;;;;;;41.96;100.00;60434.72;5108990;27;20617;-73
2023/10/18 03:34:14;;;;;;;11.13;10.13;;;;;;;63.19;100.00;60434.72;5117220;27;20227;-73
2023/10/18 03:36:51;;;;;;;10.60;9.70;;;;;;;190.63;100.00;60434.72;5117691;27;20203;-73
2023/10/18 03:39:20;;;;;;;10.20;9.30;;;;;;;190.63;100.00;60434.72;5111481;27;20200;-73
2023/10/18 03:41:48;;;;;;;9.90;9.00;;;;;;;;;;5115617;27;20693;-73
2023/10/18 03:44:21;;;;;;;11.37;10.27;;;;;;;190.63;100.00;60434.72;5115238;27;20304;-73
2023/10/18 03:46:49;;;;;;;11.03;9.97;;;;;;;;;;5108533;27;20302;-73
2023/10/18 03:49:22;;;;;;;10.97;9.87;;;;;;;105.65;100.00;60434.72;5115089;27;20380;-74
2023/10/18 03:51:53;;;;;;;9.97;9.10;;;;;;;190.63;100.00;60434.72;5110681;27;20261;-73
2023/10/18 03:54:23;;;;;;;10.70;9.60;;;;;;;;;;5106776;27;20232;-73
2023/10/18 03:56:53;;;;;;;10.83;9.83;;;;;;;;;;5112573;27;20321;-73
2023/10/18 03:59:22;;;;;;;11.47;10.37;;;;;;;;;;5111776;27;20196;-72
2023/10/18 04:02:04;;;;;;;11.57;10.47;;;;;;;;;;5110409;27;20265;-72
2023/10/18 04:04:35;;;;;;;11.13;10.13;;;;;;;105.65;100.00;60434.72;5108374;27;20706;-73
2023/10/18 04:07:12;;;;;;;10.73;9.83;;;;;;;-148.82;100.00;60434.72;5113403;27;20227;-73
2023/10/18 04:09:45;;;;;;;11.17;10.07;;;;;;;105.65;100.00;60434.72;5113278;27;20277;-73
2023/10/18 04:12:17;;;;;;;10.90;9.80;;;;;;;105.65;100.00;60434.72;5108967;27;20197;-73
2023/10/18 04:14:53;;;;;;;11.03;10.13;;;;;;;;;;5108503;27;20224;-73
2023/10/18 04:17:36;;;;;;;11.03;10.03;;;;;;;63.19;100.00;60434.72;5113575;27;20356;-72
2023/10/18 04:20:22;;;;;;;11.33;10.43;;;;;;;-148.82;100.00;60434.72;5114029;27;20196;-73
2023/10/18 04:22:50;;;;;;;11.23;10.23;;;;;;;-148.82;100.00;60434.72;5117718;27;20219;-75
2023/10/18 04:25:25;;;;;;;11.83;10.07;;;;;;;105.65;100.00;60434.72;5106496;27;20236;-74
2023/10/18 04:27:53;;;;;;;10.43;9.53;;;;;;;-148.82;100.00;60434.72;5112839;27;20220;-71
2023/10/18 04:30:23;;;;;;;10.73;9.73;;;;;;;-148.82;100.00;60434.72;5116131;27;20193;-72
2023/10/18 04:32:54;;;;;;;11.07;9.93;;;;;;;41.96;100.00;60434.72;5118298;27;20201;-73
2023/10/18 04:35:29;;;;;;;12.73;11.53;;;;;;;41.96;100.00;60434.72;5113446;27;20214;-72
2023/10/18 04:37:56;;;;;;;13.23;11.97;;;;;;;;;;5118004;27;21605;-73
2023/10/18 04:40:25;;;;;;;12.43;11.23;;;;;;;;;;5115523;27;20277;-72
2023/10/18 04:42:55;;;;;;;11.60;10.50;;;;;;;-148.82;100.00;60434.72;5114325;27;20302;-73
2023/10/18 04:45:26;;;;;;;11.87;10.87;;;;;;;-148.82;100.00;60434.72;5113719;27;20307;-73
2023/10/18 04:48:03;;;;;;;11.40;10.07;;;;;;;-148.82;100.00;60434.72;5114228;27;20230;-71
2023/10/18 04:50:32;;;;;;;11.40;10.50;;;;;;;-148.82;100.00;60434.72;5119951;27;20305;-71
2023/10/18 04:53:03;;;;;;;11.67;10.57;;;;;;;-148.82;100.00;60434.72;5114325;27;20205;-72
2023/10/18 04:55:32;;;;;;;11.13;10.13;;;;;;;-148.82;100.00;60434.72;5118714;27;20221;-72
2023/10/18 04:57:59;;;;;;;11.67;10.67;;;;;;;-148.82;100.00;60434.72;5120692;27;20206;-71
2023/10/18 05:00:57;;;;;;;11.37;10.37;;;;;;;-148.82;100.00;60434.72;5112451;27;20223;-71
2023/10/18 05:03:30;;;;;;;10.00;9.20;;;;;;;-148.82;100.00;60434.72;5116333;27;20296;-72
2023/10/18 05:05:58;;;;;;;11.90;10.90;;;;;;;31.35;100.00;60434.72;5118972;27;20249;-72
2023/10/18 05:08:25;;;;;;;11.30;10.30;;;;;;;105.65;100.00;60434.72;5112854;27;20252;-72
2023/10/18 05:11:22;;;;;;;12.20;10.73;;;;;;;-148.82;100.00;60434.72;5114714;27;20206;-72
2023/10/18 05:13:44;;;;;;;10.73;9.73;;;;;;;;;;5113838;27;20225;-70
2023/10/18 05:16:13;;;;;;;12.53;11.33;;;;;;;-148.82;100.00;60434.72;5114890;27;20806;-69
2023/10/18 05:18:40;;;;;;;12.57;11.37;;;;;;;;;;5117192;27;20205;-72
2023/10/18 05:21:08;;;;;;;11.87;10.80;;;;;;;-148.82;100.00;60434.72;5116765;27;20668;-71
2023/10/18 05:23:36;;;;;;;12.37;11.10;;;;;;;-148.82;100.00;60434.72;5116616;27;20204;-71
2023/10/18 05:26:17;;;;;;;11.93;10.87;;;;;;;-148.82;100.00;60434.72;5116788;27;20703;-72
2023/10/18 05:28:48;;;;;;;11.87;10.77;;;;;;;-148.82;100.00;60434.72;5114752;27;20221;-70
2023/10/18 05:34:04;;;;;;;12.33;11.23;;;;;;;;;;5114367;27;20209;-72
2023/10/18 05:36:36;;;;;;;11.53;10.53;;;;;;;-148.82;100.00;60434.72;5113236;27;20202;-71
2023/10/18 05:39:22;;;;;;;11.63;10.60;;;;;;;;;;5114608;27;20526;-72
2023/10/18 05:41:50;;;;;;;11.50;10.40;;;;;;;-148.82;100.00;60434.72;5119345;27;20216;-72
2023/10/18 05:44:20;;;;;;;13.50;12.30;;;;;;;-148.82;100.00;60434.72;5114175;27;20417;-72
2023/10/18 05:46:50;;;;;;;12.97;11.77;;;;;;;-148.82;100.00;60434.72;5114132;27;20225;-70
2023/10/18 05:49:23;;;;;;;12.23;11.13;;;;;;;-148.82;100.00;60434.72;5112227;27;20232;-71
2023/10/18 05:51:58;;;;;;;12.77;11.60;;;;;;;-148.82;100.00;60434.72;5120228;27;20202;-71
2023/10/18 05:54:28;;;;;;;12.87;11.73;;;;;;;-148.82;100.00;60434.72;5113253;27;20256;-70
2023/10/18 05:56:56;;;;;;;13.17;11.87;;;;;;;;;;5115755;27;20467;-71
2023/10/18 05:59:27;;;;;;;13.27;12.07;;;;;;;;;;5110160;27;20236;-70
2023/10/18 06:02:00;;;;;;;13.30;12.00;;;;;;;;;;5113566;27;20209;-71
2023/10/18 06:04:37;;;;;;;13.40;12.00;;;;;;;-148.82;100.00;60434.72;5112963;27;20481;-70
2023/10/18 06:07:09;;;;;;;12.90;11.70;;;;;;;-148.82;100.00;60434.72;5117286;27;20304;-71
2023/10/18 06:09:46;;;;;;;13.87;12.43;;;;;;;-148.82;100.00;60434.72;5110744;27;20763;-72
2023/10/18 06:12:15;;;;;;;14.03;12.83;;;;;;;-148.82;100.00;60434.72;5116069;27;20297;-74
2023/10/18 06:14:44;;;;;;;13.30;12.10;;;;;;;-148.82;100.00;60434.72;5116199;27;21024;-71
2023/10/18 06:17:19;;;;;;;13.13;11.80;;;;;;;-148.82;100.00;60434.72;5114115;27;20636;-71
2023/10/18 06:19:50;;;;;;;13.27;12.07;;;;;;;-148.82;100.00;60434.72;5116303;27;20338;-72
2023/10/18 06:22:27;;;;;;;12.33;11.23;;;;;;;-148.82;100.00;60434.72;5116149;27;20221;-70
2023/10/18 06:24:57;;;;;;;12.13;10.93;;;;;;;-148.82;100.00;60434.72;5115261;27;20260;-73
2023/10/18 06:27:25;;;;;;;12.97;11.77;;;;;;;-148.82;100.00;60434.72;5113986;27;20265;-70
2023/10/18 06:29:53;;;;;;;13.20;12.00;;;;;;;-148.82;100.00;60434.72;5113731;27;20775;-72
2023/10/18 06:32:24;;;;;;;13.13;11.93;;;;;;;41.96;100.00;60434.72;5111435;27;20270;-73
2023/10/18 06:35:09;;;;;;;13.23;11.93;;;;;;;63.19;100.00;60434.72;5116284;27;20365;-73
2023/10/18 06:37:41;;;;;;;14.07;12.67;;;;;;;63.19;100.00;60434.72;5112776;27;20674;-73
2023/10/18 06:40:21;;;;;;;13.67;12.37;;;;;;;63.19;100.00;60434.72;5114359;27;20245;-71
2023/10/18 06:42:48;;;;;;;12.87;11.63;;;;;;;;;;5114114;27;20201;-71
2023/10/18 06:45:17;;;;;;;13.90;12.57;;;;;;;-148.82;100.00;60434.72;5112956;27;20296;-70
2023/10/18 06:47:47;;;;;;;12.60;11.50;;;;;;;63.19;100.00;60434.72;5114616;27;20205;-70
2023/10/18 06:50:19;;;;;;;12.53;11.43;;;;;;;63.19;100.00;60434.72;5116760;27;20580;-71
2023/10/18 06:52:52;;;;;;;14.33;12.93;;;;;;;190.63;100.00;60434.72;5113577;27;20208;-71
2023/10/18 06:55:21;;;;;;;13.00;11.70;;;;;;;63.19;100.00;60434.72;5113940;27;20251;-72
2023/10/18 06:57:49;;;;;;;12.47;11.30;;;;;;;;;;5115661;27;20228;-72
2023/10/18 07:00:17;;;;;;;13.20;11.90;;;;;;;;;;5113822;27;20205;-71
2023/10/18 07:02:47;;;;;;;13.27;12.07;;;;;;;41.96;100.00;60434.72;5115360;27;20209;-71
2023/10/18 07:05:16;;;;;;;13.40;12.20;;;;;;;190.63;100.00;60434.72;5114402;27;20897;-71
2023/10/18 07:07:45;;;;;;;14.20;11.90;;;;;;;;;;5115228;27;20206;-72
2023/10/18 07:10:48;;;;;;;13.50;12.23;;;;;;;63.19;100.00;60434.72;5111856;27;20249;-71
2023/10/18 07:13:08;;;;;;;13.53;12.30;;;;;;;-148.82;100.00;60434.72;5113884;27;20284;-71
2023/10/18 07:15:36;;;;;;;14.23;12.93;;;;;;;-148.82;100.00;60434.72;5109913;27;20311;-71
2023/10/18 07:18:13;;;;;;;14.60;12.83;;;;;;;105.65;100.00;60434.72;5119353;27;20196;-71
2023/10/18 07:20:41;;;;;;;13.27;11.93;;;;;;;;;;5115368;27;20204;-71
2023/10/18 07:23:21;;;;;;;13.23;12.00;;;;;;;-148.82;100.00;60434.72;5118397;27;20564;-71
2023/10/18 07:25:51;;;;;;;13.93;12.73;;;;;;;105.65;100.00;60434.72;5117131;27;20277;-72
2023/10/18 07:28:36;;;;;;;11.83;10.63;;;;;;;190.63;100.00;60434.72;5113328;27;20750;-71
2023/10/18 07:31:08;;;;;;;14.23;12.83;;;;;;;;;;5115845;27;20287;-72
2023/10/18 07:33:40;;;;;;;19.33;17.60;;;;;;;105.65;100.00;60434.72;5110941;27;20205;-71
2023/10/18 07:36:09;;;;;;;16.17;14.73;;;;;;;;;;5115123;27;20599;-72
2023/10/18 07:38:46;;;;;;;19.40;17.57;;;;;;;31.35;100.00;60434.72;5113242;27;20818;-71
2023/10/18 07:41:14;;;;;;;13.67;12.43;;;;;;;;;;5106465;27;20201;-72
2023/10/18 07:43:44;;;;;;;14.07;12.87;;;;;;;63.19;100.00;60434.72;5112694;27;20201;-72
2023/10/18 07:46:17;;;;;;;13.50;12.27;;;;;;;105.65;100.00;60434.72;5115809;27;20229;-71
2023/10/18 07:48:47;;;;;;;12.27;11.20;;;;;;;105.65;100.00;60434.72;5114975;27;20228;-70
2023/10/18 07:51:24;;;;;;;16.93;15.37;;;;;;;;;;5112435;27;20209;-72
2023/10/18 07:53:55;;;;;;;13.00;11.90;;;;;;;105.65;100.00;60434.72;5112938;27;20219;-71
2023/10/18 07:56:27;;;;;;;14.13;12.67;;;;;;;41.96;100.00;60434.72;5112813;27;20211;-71
2023/10/18 07:58:55;;;;;;;13.43;12.23;;;;;;;;;;5114797;27;20259;-71
2023/10/18 08:04:10;;;;;;;13.00;11.87;;;;;;;63.19;100.00;60434.72;5116790;27;20209;-71
2023/10/18 08:06:39;;;;;;;14.57;13.17;;;;;;;41.96;100.00;60434.72;5110595;27;20201;-71
2023/10/18 08:09:07;;;;;;;11.97;10.77;;;;;;;41.96;100.00;60434.72;5109741;27;20224;-70
2023/10/18 08:11:34;;;;;;;13.83;12.53;;;;;;;-148.82;100.00;60434.72;5111841;27;20765;-71
2023/10/18 08:14:09;;;;;;;12.23;10.90;;;;;;;-148.82;100.00;60434.72;5113400;27;20209;-72
2023/10/18 08:16:43;;;;;;;12.33;11.17;;;;;;;-148.82;100.00;60434.72;5111191;27;20809;-71
2023/10/18 08:19:13;;;;;;;13.73;12.40;;;;;;;-148.82;100.00;60434.72;5114089;27;20202;-72
2023/10/18 08:21:57;;;;;;;12.60;11.43;;;;;;;-148.82;100.00;60434.72;5109081;27;20913;-71
2023/10/18 08:24:25;;;;;;;12.93;11.83;;;;;;;-148.82;100.00;60434.72;5109274;27;20754;-72
2023/10/18 08:26:59;;;;;;;12.30;11.20;;;;;;;-148.82;100.00;60434.72;5116456;27;20336;-72
2023/10/18 08:29:34;;;;;;;11.80;10.90;;;;;;;-148.82;100.00;60434.72;5112371;27;20704;-72
2023/10/18 08:32:06;;;;;;;12.50;11.20;;;;;;;-148.82;100.00;60434.72;5111561;27;20222;-71
2023/10/18 08:34:36;;;;;;;12.37;11.27;;;;;;;-148.82;100.00;60434.72;5116805;27;20229;-71
2023/10/18 08:37:04;;;;;;;12.17;11.17;;;;;;;-148.82;100.00;60434.72;5116708;27;20288;-71
2023/10/18 08:39:32;;;;;;;11.40;10.40;;;;;;;-148.82;100.00;60434.72;5107609;27;20210;-72
2023/10/18 08:42:05;;;;;;;11.77;10.67;;;;;;;41.96;100.00;60434.72;5115731;27;20205;-72
2023/10/18 08:44:32;;;;;;;12.03;10.93;;;;;;;-148.82;100.00;60434.72;5113044;27;20228;-72
2023/10/18 08:47:11;;;;;;;10.97;9.97;;;;;;;-148.82;100.00;60434.72;5112611;27;20197;-71
2023/10/18 08:49:50;;;;;;;11.77;10.57;;;;;;;-148.82;100.00;60434.72;5112799;27;20611;-72
2023/10/18 08:52:21;;;;;;;12.13;10.90;;;;;;;-148.82;100.00;60434.72;5113221;27;20209;-72
2023/10/18 08:54:49;;;;;;;10.87;9.87;;;;;;;-148.82;100.00;60434.72;5108830;27;20226;-71
2023/10/18 08:57:34;;;;;;;12.10;11.00;;;;;;;-148.82;100.00;60434.72;5112076;27;20205;-71
2023/10/18 09:00:18;;;;;;;12.50;11.30;;;;;;;-148.82;100.00;60434.72;5106878;27;21281;-71
2023/10/18 09:02:48;;;;;;;11.77;10.73;;;;;;;-148.82;100.00;60434.72;5111497;27;20202;-72
2023/10/18 09:05:20;;;;;;;10.63;9.70;;;;;;;-148.82;100.00;60434.72;5111987;27;20304;-71
2023/10/18 09:07:50;;;;;;;9.97;9.07;;;;;;;-148.82;100.00;60434.72;5117886;27;20216;-70
2023/10/18 09:16:01;;;;;;;11.43;10.43;;;;;;;-148.82;100.00;60434.72;5117651;27;20278;-71
2023/10/18 09:18:30;;;;;;;10.87;9.87;;;;;;;-148.82;100.00;60434.72;5116947;27;20309;-73
2023/10/18 09:21:07;;;;;;;10.53;9.63;;;;;;;-148.82;100.00;60434.72;5119205;27;20230;-70
2023/10/18 09:23:35;;;;;;;10.50;9.47;;;;;;;-148.82;100.00;60434.72;5115148;27;20213;-72
2023/10/18 09:26:10;;;;;;;12.00;10.80;;;;;;;;;;5119726;27;20236;-71
2023/10/18 09:28:39;;;;;;;9.93;9.13;;;;;;;-148.82;100.00;60434.72;5116391;27;20682;-70
2023/10/18 09:31:11;;;;;;;10.20;9.40;;;;;;;-148.82;100.00;60434.72;5113846;27;20313;-71
2023/10/18 09:33:40;;;;;;;10.53;9.53;;;;;;;;;;5113966;27;20201;-70
2023/10/18 09:36:19;;;;;;;11.10;10.00;;;;;;;-148.82;100.00;60434.72;5119308;27;20220;-71
2023/10/18 09:38:48;;;;;;;11.27;10.20;;;;;;;;;;5114229;27;20292;-70
2023/10/18 09:41:16;;;;;;;11.43;10.53;;;;;;;;;;5115621;27;20192;-72
2023/10/18 09:43:44;;;;;;;10.67;9.77;;;;;;;-148.82;100.00;60434.72;5114823;27;20755;-70
2023/10/18 09:46:13;;;;;;;10.53;9.43;;;;;;;-148.82;100.00;60434.72;5112271;27;21115;-72
2023/10/18 09:48:43;;;;;;;11.37;10.27;;;;;;;-148.82;100.00;60434.72;5113855;27;20276;-71
2023/10/18 09:51:15;;;;;;;10.43;9.53;;;;;;;-148.82;100.00;60434.72;5113148;27;20225;-71
2023/10/18 09:53:44;;;;;;;11.20;10.20;;;;;;;;;;5113948;27;20884;-71
2023/10/18 09:56:13;;;;;;;10.37;9.43;;;;;;;-148.82;100.00;60434.72;5114673;27;20959;-70
2023/10/18 09:58:46;;;;;;;10.67;9.77;;;;;;;31.35;100.00;60434.72;5115102;27;20236;-71
2023/10/18 10:01:14;;;;;;;10.30;9.40;;;;;;;;;;5117064;27;20256;-71
2023/10/18 10:03:50;;;;;;;10.53;9.53;;;;;;;-148.82;100.00;60434.72;5115576;27;20388;-72
2023/10/18 10:06:21;;;;;;;10.23;9.23;;;;;;;-148.82;100.00;60434.72;5115394;27;20227;-71
2023/10/18 10:08:55;;;;;;;10.00;9.10;;;;;;;-148.82;100.00;60434.72;5112000;27;20718;-71
2023/10/18 10:11:29;;;;;;;10.97;10.00;;;;;;;-148.82;100.00;60434.72;5115376;27;20221;-70
2023/10/18 10:14:00;;;;;;;9.87;8.97;;;;;;;-148.82;100.00;60434.72;5110971;27;20874;-71
2023/10/18 10:16:29;;;;;;;10.23;9.13;;;;;;;-148.82;100.00;60434.72;5113560;27;20306;-71
2023/10/18 10:18:59;;;;;;;10.40;9.47;;;;;;;-148.82;100.00;60434.72;5118943;27;20228;-71
2023/10/18 10:21:27;;;;;;;9.50;8.60;;;;;;;-148.82;100.00;60434.72;5116017;27;20227;-72
2023/10/18 10:24:06;;;;;;;10.53;9.73;;;;;;;-148.82;100.00;60434.72;5113481;27;20250;-71
2023/10/18 10:26:36;;;;;;;10.57;9.67;;;;;;;-148.82;100.00;60434.72;5113809;27;20212;-72
2023/10/18 10:29:33;;;;;;;10.80;9.80;;;;;;;-148.82;100.00;60434.72;5114369;27;20663;-71
2023/10/18 10:32:04;;;;;;;10.13;9.13;;;;;;;-148.82;100.00;60434.72;5112621;27;20648;-71
2023/10/18 10:34:34;;;;;;;11.13;9.97;;;;;;;;;;5117620;27;20215;-71
2023/10/18 10:37:10;;;;;;;10.47;9.57;;;;;;;-148.82;100.00;60434.72;5115362;27;20529;-71
2023/10/18 10:39:49;;;;;;;9.97;9.00;;;;;;;31.35;100.00;60434.72;5110579;27;20233;-70
2023/10/18 10:42:41;;;;;;;9.53;8.63;;;;;;;-148.82;100.00;60434.72;5114135;27;20204;-71
2023/10/18 10:45:14;;;;;;;8.60;7.90;;;;;;;;;;5115035;27;20235;-71
2023/10/18 10:47:45;;;;;;;9.20;8.40;;;;;;;-148.82;100.00;60434.72;5110967;27;20247;-71
2023/10/18 10:50:42;;;;;;;10.27;9.20;;;;;;;-148.82;100.00;60434.72;5115056;27;20559;-71
2023/10/18 10:53:10;;;;;;;8.77;8.00;;;;;;;31.35;100.00;60434.72;5113911;27;20204;-72
2023/10/18 10:55:39;;;;;;;9.13;8.23;;;;;;;-148.82;100.00;60434.72;5113053;27;20330;-70
2023/10/18 10:58:15;;;;;;;8.83;8.13;;;;;;;31.35;100.00;60434.72;5111519;27;20197;-71
2023/10/18 11:00:59;;;;;;;8.23;7.53;;;;;;;41.96;100.00;60434.72;5112027;27;20192;-71
2023/10/18 11:03:32;;;;;;;8.43;7.73;;;;;;;41.96;100.00;60434.72;5116729;27;20197;-71
2023/10/18 11:06:05;;;;;;;9.93;9.07;;;;;;;-148.82;100.00;60434.72;5116784;27;20571;-71
2023/10/18 11:08:36;;;;;;;9.57;8.73;;;;;;;-148.82;100.00;60434.72;5115575;27;20199;-71
2023/10/18 11:11:06;;;;;;;8.90;8.20;;;;;;;-148.82;100.00;60434.72;5113079;27;20228;-73
2023/10/18 11:13:36;;;;;;;9.50;8.70;;;;;;;-148.82;100.00;60434.72;5113122;27;20216;-72
2023/10/18 11:16:05;;;;;;;9.23;8.43;;;;;;;-148.82;100.00;60434.72;5110848;27;20269;-72
2023/10/18 11:18:39;;;;;;;10.10;9.23;;;;;;;31.35;100.00;60434.72;5113397;27;20197;-73
2023/10/18 11:21:12;;;;;;;8.37;7.67;;;;;;;-148.82;100.00;60434.72;5115477;27;20634;-74
2023/10/18 11:23:41;;;;;;;9.00;8.20;;;;;;;;;;5108196;27;20654;-71
2023/10/18 11:26:19;;;;;;;8.53;7.83;;;;;;;-148.82;100.00;60434.72;5112768;27;20265;-73
2023/10/18 11:28:47;;;;;;;9.37;8.43;;;;;;;;;;5112789;27;20324;-72
2023/10/18 11:31:15;;;;;;;8.87;8.17;;;;;;;-148.82;100.00;60434.72;5114959;27;20304;-72
2023/10/18 11:33:54;;;;;;;9.23;8.43;;;;;;;-148.82;100.00;60434.72;5110053;27;20197;-72
2023/10/18 11:36:27;;;;;;;8.27;7.53;;;;;;;;;;5110998;27;21086;-71
2023/10/18 11:41:41;;;;;;;9.57;8.67;;;;;;;;;;5112368;27;20201;-72
2023/10/18 11:44:13;;;;;;;9.00;8.20;;;;;;;-148.82;100.00;60434.72;5118020;27;20208;-71
2023/10/18 11:46:49;;;;;;;9.00;8.30;;;;;;;-148.82;100.00;60434.72;5109548;27;20561;-72
2023/10/18 11:49:19;;;;;;;9.20;8.37;;;;;;;-148.82;100.00;60434.72;5114090;27;20201;-72
2023/10/18 11:51:49;;;;;;;9.17;8.37;;;;;;;31.35;100.00;60434.72;5115179;27;20567;-71
2023/10/18 11:54:30;;;;;;;9.07;8.37;;;;;;;41.96;100.00;60434.72;5111034;27;20262;-72
2023/10/18 11:57:00;;;;;;;8.60;7.87;;;;;;;-148.82;100.00;60434.72;5110679;27;20212;-72
2023/10/18 11:59:29;;;;;;;8.93;8.13;;;;;;;41.96;100.00;60434.72;5111269;27;20204;-70
2023/10/18 12:01:58;;;;;;;8.13;7.53;;;;;;;-148.82;100.00;60434.72;5111904;27;20204;-72
2023/10/18 12:04:29;;;;;;;9.10;7.93;;;;;;;-148.82;100.00;60434.72;5111817;27;20907;-71
2023/10/18 12:06:58;;;;;;;9.13;8.40;;;;;;;;;;5111091;27;20830;-71
2023/10/18 12:09:30;;;;;;;9.20;8.40;;;;;;;-148.82;100.00;60434.72;5110479;27;20587;-71